Time;durP1;ratioP1;P1;durP2;ratioP2;P2;SDS_P1;SDS_P2;PMS_P1;PMS_P2;Temp;Humidity;BMP_temperature;BMP_pressure;BME280_temperature;BME280_humidity;BME280_pressure;Samples;Min_cycle;Max_cycle;Signal;HPM_P1;HPM_P2
2023/06/11 00:00:33;;;;;;;4.28;3.97;;;;;;;;;;5062976;28;20431;-84
2023/06/11 00:02:59;;;;;;;4.35;4.00;;;;;;;;;;5065931;28;20393;-83
2023/06/11 00:05:27;;;;;;;4.30;4.00;;;;;;;;;;5062738;28;20780;-83
2023/06/11 00:07:55;;;;;;;4.43;4.15;;;;;;;;;;5064938;28;20409;-84
2023/06/11 00:10:21;;;;;;;4.50;4.10;;;;;;;;;;5058727;28;20373;-83
2023/06/11 00:12:47;;;;;;;4.35;4.05;;;;;;;;;;5054260;28;20500;-83
2023/06/11 00:15:13;;;;;;;4.30;4.00;;;;;;;;;;5054357;28;20497;-83
2023/06/11 00:17:39;;;;;;;4.40;4.00;;;;;;;;;;5054398;28;20746;-83
2023/06/11 00:20:09;;;;;;;4.10;3.90;;;;;;;;;;5054242;28;20855;-84
2023/06/11 00:22:35;;;;;;;4.70;4.40;;;;;;;;;;5054172;28;20400;-83
2023/06/11 00:25:01;;;;;;;4.50;4.20;;;;;;;;;;5054186;28;20435;-83
2023/06/11 00:27:27;;;;;;;5.00;4.70;;;;;;;;;;5054127;28;20390;-83
2023/06/11 00:29:54;;;;;;;4.53;4.28;;;;;;;;;;5054045;28;20920;-83
2023/06/11 00:32:20;;;;;;;4.20;3.90;;;;;;;;;;5054075;28;20389;-83
2023/06/11 00:34:46;;;;;;;4.80;4.50;;;;;;;;;;5053989;28;20384;-84
2023/06/11 00:37:13;;;;;;;4.28;4.00;;;;;;;;;;5054069;28;20389;-84
2023/06/11 00:39:39;;;;;;;4.80;4.50;;;;;;;;;;5053903;28;20381;-83
2023/06/11 00:42:09;;;;;;;4.50;4.20;;;;;;;;;;5052504;28;20859;-83
2023/06/11 00:44:36;;;;;;;5.13;4.72;;;;;;;;;;5053573;28;20886;-83
2023/06/11 00:47:02;;;;;;;4.95;4.50;;;;;;;;;;5053918;28;20892;-83
2023/06/11 00:49:29;;;;;;;5.20;4.80;;;;;;;;;;5053668;28;20435;-83
2023/06/11 00:51:55;;;;;;;4.90;4.60;;;;;;;;;;5053836;28;20821;-83
2023/06/11 00:54:21;;;;;;;4.80;4.50;;;;;;;;;;5053820;28;20386;-84
2023/06/11 00:56:47;;;;;;;5.20;4.90;;;;;;;;;;5053619;28;20859;-83
2023/06/11 00:59:13;;;;;;;5.10;4.80;;;;;;;;;;5062677;28;20400;-82
2023/06/11 01:01:49;;;;;;;5.22;4.90;;;;;;;;;;5059164;28;20444;-83
2023/06/11 01:04:23;;;;;;;5.50;5.00;;;;;;;;;;5069818;28;20396;-83
2023/06/11 01:06:51;;;;;;;5.25;4.95;;;;;;;;;;5058736;28;20418;-85
2023/06/11 01:09:19;;;;;;;5.20;4.90;;;;;;;;;;5057075;28;20459;-83
2023/06/11 01:11:48;;;;;;;5.68;5.28;;;;;;;;;;5070387;28;20435;-84
2023/06/11 01:14:16;;;;;;;6.20;5.80;;;;;;;;;;5073430;28;20375;-83
2023/06/11 01:17:02;;;;;;;6.10;5.60;;;;;;;;;;5073295;28;20841;-83
2023/06/11 01:19:40;;;;;;;5.80;5.40;;;;;;;;;;5072610;28;20522;-83
2023/06/11 01:22:30;;;;;;;6.20;5.70;;;;;;;;;;5052961;28;20381;-83
2023/06/11 01:24:59;;;;;;;6.28;5.88;;;;;;;;;;5046377;28;20381;-82
2023/06/11 01:27:33;;;;;;;5.83;5.33;;;;;;;;;;5053110;28;20405;-83
2023/06/11 01:30:01;;;;;;;6.20;5.80;;;;;;;;;;5053074;28;20381;-82
2023/06/11 01:32:27;;;;;;;5.68;5.28;;;;;;;;;;5051669;28;20871;-83
2023/06/11 01:35:00;;;;;;;5.78;5.38;;;;;;;;;;5052919;28;20389;-84
2023/06/11 01:37:29;;;;;;;6.30;5.80;;;;;;;;;;5052968;28;20380;-84
2023/06/11 01:39:55;;;;;;;5.95;5.45;;;;;;;;;;5052791;28;20377;-84
2023/06/11 01:42:21;;;;;;;5.40;5.00;;;;;;;;;;5052830;28;20859;-84
2023/06/11 01:44:47;;;;;;;5.75;5.35;;;;;;;;;;5052745;28;20378;-85
2023/06/11 01:47:13;;;;;;;5.68;5.32;;;;;;;;;;5052818;28;20400;-84
2023/06/11 01:49:39;;;;;;;5.80;5.40;;;;;;;;;;5052644;28;20874;-84
2023/06/11 01:52:06;;;;;;;6.50;6.10;;;;;;;;;;5052610;28;20505;-84
2023/06/11 01:54:32;;;;;;;6.13;5.63;;;;;;;;;;5052120;28;20378;-84
2023/06/11 01:56:58;;;;;;;6.65;6.15;;;;;;;;;;5052460;28;21196;-84
2023/06/11 01:59:24;;;;;;;6.00;5.60;;;;;;;;;;5052567;28;20392;-84
2023/06/11 02:01:52;;;;;;;6.70;6.10;;;;;;;;;;5052460;28;20370;-84
2023/06/11 02:04:20;;;;;;;5.95;5.55;;;;;;;;;;5051156;28;20392;-84
2023/06/11 02:06:46;;;;;;;7.20;6.50;;;;;;;;;;5050981;28;20413;-84
2023/06/11 02:09:12;;;;;;;6.67;6.17;;;;;;;;;;5059076;28;20756;-84
2023/06/11 02:11:39;;;;;;;6.18;5.78;;;;;;;;;;5064165;28;20403;-84
2023/06/11 02:14:05;;;;;;;6.07;5.67;;;;;;;;;;5061376;28;20438;-84
2023/06/11 02:16:31;;;;;;;6.30;5.90;;;;;;;;;;5066528;28;20461;-84
2023/06/11 02:18:57;;;;;;;6.43;6.03;;;;;;;;;;5062884;28;20471;-85
2023/06/11 02:21:23;;;;;;;6.40;6.00;;;;;;;;;;5072011;28;20392;-84
2023/06/11 02:23:49;;;;;;;6.35;5.90;;;;;;;;;;5071978;28;20431;-84
2023/06/11 02:26:15;;;;;;;6.30;5.83;;;;;;;;;;5070677;28;20470;-84
2023/06/11 02:28:41;;;;;;;7.00;6.43;;;;;;;;;;5071910;28;20913;-85
2023/06/11 02:31:07;;;;;;;6.60;6.10;;;;;;;;;;5071852;28;20372;-85
2023/06/11 02:33:33;;;;;;;6.85;6.30;;;;;;;;;;5071771;28;20857;-85
2023/06/11 02:35:59;;;;;;;6.60;6.20;;;;;;;;;;5071742;28;20479;-84
2023/06/11 02:38:25;;;;;;;6.38;5.93;;;;;;;;;;5071846;28;20383;-84
2023/06/11 02:40:51;;;;;;;7.07;6.60;;;;;;;;;;5071676;28;20411;-84
2023/06/11 02:43:17;;;;;;;6.88;6.38;;;;;;;;;;5071870;28;20391;-84
2023/06/11 02:45:43;;;;;;;6.95;6.55;;;;;;;;;;5071626;28;20395;-84
2023/06/11 02:48:09;;;;;;;7.67;7.07;;;;;;;;;;5071573;28;20415;-84
2023/06/11 02:50:35;;;;;;;6.78;6.32;;;;;;;;;;5071627;28;20852;-84
2023/06/11 02:53:01;;;;;;;7.25;6.75;;;;;;;;;;5068228;28;20443;-85
2023/06/11 02:55:27;;;;;;;6.82;6.38;;;;;;;;;;5051434;28;20393;-85
2023/06/11 02:57:53;;;;;;;6.78;6.38;;;;;;;;;;5051494;28;20377;-84
2023/06/11 03:00:19;;;;;;;6.53;6.13;;;;;;;;;;5051479;28;20417;-85
2023/06/11 03:02:45;;;;;;;6.72;6.32;;;;;;;;;;5051295;28;20385;-84
2023/06/11 03:05:11;;;;;;;6.97;6.47;;;;;;;;;;5050509;28;20377;-85
2023/06/11 03:07:37;;;;;;;7.15;6.65;;;;;;;;;;5051012;28;20420;-85
2023/06/11 03:10:03;;;;;;;6.90;6.47;;;;;;;;;;5051400;28;20850;-84
2023/06/11 03:12:29;;;;;;;7.00;6.50;;;;;;;;;;5051419;28;20401;-84
2023/06/11 03:14:55;;;;;;;6.40;6.00;;;;;;;;;;5062518;28;20408;-85
2023/06/11 03:17:21;;;;;;;7.00;6.57;;;;;;;;;;5061629;28;20375;-85
2023/06/11 03:19:47;;;;;;;7.90;7.40;;;;;;;;;;5067092;28;20463;-85
2023/06/11 03:22:13;;;;;;;8.15;7.55;;;;;;;;;;5062505;28;20474;-85
2023/06/11 03:24:39;;;;;;;7.87;7.27;;;;;;;;;;5057933;28;20470;-84
2023/06/11 03:27:06;;;;;;;7.30;6.80;;;;;;;;;;5051008;28;20384;-84
2023/06/11 03:29:32;;;;;;;7.53;7.03;;;;;;;;;;5050454;28;20401;-85
2023/06/11 03:31:58;;;;;;;7.32;6.82;;;;;;;;;;5051047;28;20480;-84
2023/06/11 03:34:24;;;;;;;7.20;6.70;;;;;;;;;;5051075;28;20385;-84
2023/06/11 03:36:50;;;;;;;7.75;7.25;;;;;;;;;;5051120;28;20431;-84
2023/06/11 03:39:16;;;;;;;7.65;7.15;;;;;;;;;;5050881;28;20781;-85
2023/06/11 03:41:42;;;;;;;6.93;6.53;;;;;;;;;;5051014;28;20386;-85
2023/06/11 03:44:08;;;;;;;6.85;6.35;;;;;;;;;;5050900;28;20819;-85
2023/06/11 03:46:34;;;;;;;7.60;7.10;;;;;;;;;;5050984;28;20397;-84
2023/06/11 03:49:00;;;;;;;8.30;7.70;;;;;;;;;;5050753;28;20412;-84
2023/06/11 03:51:26;;;;;;;7.28;6.80;;;;;;;;;;5050724;28;20377;-84
2023/06/11 03:53:52;;;;;;;7.80;7.20;;;;;;;;;;5050905;28;20377;-85
2023/06/11 03:56:18;;;;;;;7.80;7.30;;;;;;;;;;5050827;28;20382;-84
2023/06/11 03:58:44;;;;;;;7.90;7.40;;;;;;;;;;5050708;28;20392;-83
2023/06/11 04:01:10;;;;;;;8.23;7.53;;;;;;;;;;5050690;28;20385;-84
2023/06/11 04:03:36;;;;;;;7.70;7.20;;;;;;;;;;5049752;28;20421;-84
2023/06/11 04:06:02;;;;;;;8.75;8.13;;;;;;;;;;5050764;28;20393;-85
2023/06/11 04:08:29;;;;;;;8.43;7.83;;;;;;;;;;5050529;28;20409;-84
2023/06/11 04:10:55;;;;;;;8.40;7.90;;;;;;;;;;5050047;28;20370;-84
2023/06/11 04:13:21;;;;;;;8.52;8.02;;;;;;;;;;5062652;28;20384;-85
2023/06/11 04:15:47;;;;;;;7.80;7.30;;;;;;;;;;5054808;28;20865;-84
2023/06/11 04:18:13;;;;;;;8.70;8.10;;;;;;;;;;5065685;28;20869;-84
2023/06/11 04:20:39;;;;;;;8.37;7.87;;;;;;;;;;5062217;28;20389;-85
2023/06/11 04:23:05;;;;;;;8.55;8.05;;;;;;;;;;5054382;28;20465;-85
2023/06/11 04:25:31;;;;;;;8.80;8.20;;;;;;;;;;5054345;28;20377;-84
2023/06/11 04:27:57;;;;;;;9.00;8.40;;;;;;;;;;5054063;28;20427;-85
2023/06/11 04:30:23;;;;;;;8.60;8.07;;;;;;;;;;5054069;28;20399;-85
2023/06/11 04:32:54;;;;;;;8.90;8.20;;;;;;;;;;5054120;28;20786;-84
2023/06/11 04:35:21;;;;;;;8.95;8.35;;;;;;;;;;5054166;28;20374;-85
2023/06/11 04:37:47;;;;;;;8.63;8.02;;;;;;;;;;5054155;28;20374;-85
2023/06/11 04:40:14;;;;;;;8.20;7.70;;;;;;;;;;5053938;28;20819;-84
2023/06/11 04:42:40;;;;;;;9.02;8.43;;;;;;;;;;5053907;28;20431;-84
2023/06/11 04:45:09;;;;;;;9.23;8.63;;;;;;;;;;5053935;28;20408;-84
2023/06/11 04:47:36;;;;;;;8.60;7.90;;;;;;;;;;5053659;28;20384;-84
2023/06/11 04:50:04;;;;;;;9.23;8.63;;;;;;;;;;5053773;28;20420;-84
2023/06/11 04:52:34;;;;;;;9.88;9.23;;;;;;;;;;5053761;28;20370;-84
2023/06/11 04:55:01;;;;;;;10.95;10.25;;;;;;;;;;5053795;28;20459;-85
2023/06/11 04:57:27;;;;;;;10.00;9.20;;;;;;;;;;5053279;28;20378;-85
2023/06/11 04:59:53;;;;;;;10.05;9.35;;;;;;;;;;5053576;28;20847;-84
2023/06/11 05:02:21;;;;;;;11.60;10.80;;;;;;;;;;5053575;28;20400;-84
2023/06/11 05:04:49;;;;;;;9.93;9.13;;;;;;;;;;5053603;28;20424;-84
2023/06/11 05:07:19;;;;;;;10.85;10.05;;;;;;;;;;5053118;28;20867;-85
2023/06/11 05:09:45;;;;;;;10.95;10.25;;;;;;;;;;5053299;28;20412;-84
2023/06/11 05:12:11;;;;;;;10.32;9.63;;;;;;;;;;5053207;28;20492;-84
2023/06/11 05:14:37;;;;;;;11.43;10.63;;;;;;;;;;5052063;28;20385;-84
2023/06/11 05:17:03;;;;;;;10.80;10.10;;;;;;;;;;5052715;28;20866;-84
2023/06/11 05:19:29;;;;;;;10.65;9.88;;;;;;;;;;5053213;28;20412;-84
2023/06/11 05:21:56;;;;;;;12.30;11.50;;;;;;;;;;5053192;28;20724;-84
2023/06/11 05:24:28;;;;;;;11.23;10.43;;;;;;;;;;5057567;28;20373;-84
2023/06/11 05:26:55;;;;;;;10.30;9.50;;;;;;;;;;5056593;28;20442;-84
2023/06/11 05:29:21;;;;;;;11.05;10.25;;;;;;;;;;5054290;28;20986;-84
2023/06/11 05:31:47;;;;;;;10.85;10.10;;;;;;;;;;5067449;28;20461;-85
2023/06/11 05:34:13;;;;;;;11.88;11.07;;;;;;;;;;5052823;28;20377;-84
2023/06/11 05:36:40;;;;;;;14.07;13.13;;;;;;;;;;5052781;28;20512;-85
2023/06/11 05:39:06;;;;;;;12.70;11.70;;;;;;;;;;5052916;28;20382;-84
2023/06/11 05:41:32;;;;;;;13.10;12.20;;;;;;;;;;5052898;28;20473;-84
2023/06/11 05:43:58;;;;;;;13.55;12.60;;;;;;;;;;5052784;28;20377;-85
2023/06/11 05:46:25;;;;;;;13.20;12.20;;;;;;;;;;5052940;28;20389;-84
2023/06/11 05:48:51;;;;;;;12.55;11.65;;;;;;;;;;5052595;28;20408;-84
2023/06/11 05:51:17;;;;;;;11.35;10.65;;;;;;;;;;5052644;28;20423;-84
2023/06/11 05:53:43;;;;;;;11.13;10.43;;;;;;;;;;5052504;28;20414;-84
2023/06/11 05:56:09;;;;;;;11.10;10.40;;;;;;;;;;5052739;28;20420;-84
2023/06/11 05:58:35;;;;;;;10.40;9.70;;;;;;;;;;5052526;28;20401;-84
2023/06/11 06:01:02;;;;;;;9.68;8.95;;;;;;;;;;5062545;22;20427;-79
2023/06/11 06:03:31;;;;;;;8.82;8.20;;;;;;;;;;5032484;28;20387;-79
2023/06/11 06:06:01;;;;;;;9.27;8.57;;;;;;;;;;5032742;28;20457;-81
2023/06/11 06:08:27;;;;;;;9.40;8.70;;;;;;;;;;5031907;28;20414;-81
2023/06/11 06:10:54;;;;;;;9.50;8.70;;;;;;;;;;5032460;28;20406;-81
2023/06/11 06:13:20;;;;;;;8.27;7.68;;;;;;;;;;5032332;28;20379;-81
2023/06/11 06:15:46;;;;;;;8.45;7.90;;;;;;;;;;5032311;28;20397;-81
2023/06/11 06:18:12;;;;;;;7.83;7.27;;;;;;;;;;5032334;28;20876;-82
2023/06/11 06:20:38;;;;;;;7.80;7.25;;;;;;;;;;5032290;28;20393;-82
2023/06/11 06:23:04;;;;;;;7.05;6.55;;;;;;;;;;5032206;28;20749;-81
2023/06/11 06:25:31;;;;;;;8.23;7.63;;;;;;;;;;5036509;28;20874;-82
2023/06/11 06:27:57;;;;;;;7.60;7.10;;;;;;;;;;5044960;28;20401;-82
2023/06/11 06:30:23;;;;;;;8.05;7.45;;;;;;;;;;5040049;28;20466;-81
2023/06/11 06:32:49;;;;;;;8.10;7.50;;;;;;;;;;5041346;28;20857;-82
2023/06/11 06:35:15;;;;;;;8.00;7.50;;;;;;;;;;5051934;28;20377;-81
2023/06/11 06:37:41;;;;;;;7.38;6.88;;;;;;;;;;5051977;28;20381;-81
2023/06/11 06:40:08;;;;;;;8.15;7.60;;;;;;;;;;5051845;28;20373;-81
2023/06/11 06:42:34;;;;;;;7.97;7.47;;;;;;;;;;5051686;28;20719;-81
2023/06/11 06:45:00;;;;;;;8.23;7.70;;;;;;;;;;5051657;28;20855;-81
2023/06/11 06:47:26;;;;;;;7.75;7.25;;;;;;;;;;5051725;28;20384;-82
2023/06/11 06:49:52;;;;;;;7.93;7.43;;;;;;;;;;5051687;28;20385;-81
2023/06/11 06:52:18;;;;;;;8.05;7.55;;;;;;;;;;5051521;28;20786;-81
2023/06/11 06:54:44;;;;;;;7.53;7.03;;;;;;;;;;5051470;28;20399;-81
2023/06/11 06:57:10;;;;;;;8.20;7.60;;;;;;;;;;5051614;28;20382;-81
2023/06/11 06:59:36;;;;;;;8.00;7.47;;;;;;;;;;5051578;28;20381;-82
2023/06/11 07:02:02;;;;;;;8.50;7.90;;;;;;;;;;5051135;28;20870;-82
2023/06/11 07:04:28;;;;;;;8.13;7.63;;;;;;;;;;5051379;28;20435;-81
2023/06/11 07:06:55;;;;;;;8.20;7.70;;;;;;;;;;5031057;28;20383;-81
2023/06/11 07:09:21;;;;;;;8.00;7.50;;;;;;;;;;5031483;28;20561;-82
2023/06/11 07:11:48;;;;;;;7.90;7.30;;;;;;;;;;5031400;28;20383;-82
2023/06/11 07:14:14;;;;;;;8.03;7.43;;;;;;;;;;5031669;28;20441;-82
2023/06/11 07:16:40;;;;;;;7.45;6.90;;;;;;;;;;5031429;28;20769;-81
2023/06/11 07:19:06;;;;;;;7.22;6.72;;;;;;;;;;5031705;28;20791;-82
2023/06/11 07:21:35;;;;;;;7.43;6.95;;;;;;;;;;5030700;28;20375;-81
2023/06/11 07:24:04;;;;;;;7.60;6.97;;;;;;;;;;5031163;28;20841;-81
2023/06/11 07:26:30;;;;;;;7.25;6.75;;;;;;;;;;5035903;28;20379;-82
2023/06/11 07:28:56;;;;;;;7.53;7.03;;;;;;;;;;5033458;28;20498;-82
2023/06/11 07:31:22;;;;;;;7.10;6.50;;;;;;;;;;5039749;28;20455;-82
2023/06/11 07:33:49;;;;;;;7.03;6.63;;;;;;;;;;5040704;28;20389;-82
2023/06/11 07:36:15;;;;;;;7.40;6.90;;;;;;;;;;5036049;28;20720;-83
2023/06/11 07:38:43;;;;;;;6.50;6.00;;;;;;;;;;5051446;28;20469;-82
2023/06/11 07:41:10;;;;;;;6.63;6.13;;;;;;;;;;5047490;28;20474;-82
2023/06/11 07:43:35;;;;;;;7.03;6.63;;;;;;;;;;5031043;28;20387;-83
2023/06/11 07:46:03;;;;;;;6.53;6.13;;;;;;;;;;5031216;28;20394;-83
2023/06/11 07:48:29;;;;;;;6.90;6.40;;;;;;;;;;5031016;28;20414;-82
2023/06/11 07:50:55;;;;;;;6.07;5.68;;;;;;;;;;5030203;28;20387;-82
2023/06/11 07:53:21;;;;;;;6.63;6.13;;;;;;;;;;5035110;28;20390;-82
2023/06/11 07:55:49;;;;;;;6.57;6.18;;;;;;;;;;5035067;28;20387;-82
2023/06/11 07:58:15;;;;;;;6.40;6.00;;;;;;;;;;5034926;28;20389;-82
2023/06/11 08:00:41;;;;;;;6.20;5.80;;;;;;;;;;5034683;28;20441;-82
2023/06/11 08:03:08;;;;;;;6.50;6.10;;;;;;;;;;5034880;28;20490;-82
2023/06/11 08:05:34;;;;;;;6.95;6.45;;;;;;;;;;5033722;28;20982;-82
2023/06/11 08:08:00;;;;;;;6.57;6.10;;;;;;;;;;5034678;28;20549;-82
2023/06/11 08:10:26;;;;;;;5.37;5.07;;;;;;;;;;5034759;28;20374;-82
2023/06/11 08:12:52;;;;;;;6.25;5.85;;;;;;;;;;5035024;28;20382;-82
2023/06/11 08:15:19;;;;;;;6.07;5.68;;;;;;;;;;5034992;28;20376;-82
2023/06/11 08:17:45;;;;;;;6.10;5.70;;;;;;;;;;5034217;28;20371;-82
2023/06/11 08:20:12;;;;;;;6.10;5.70;;;;;;;;;;5034684;28;20375;-82
2023/06/11 08:22:39;;;;;;;5.70;5.40;;;;;;;;;;5034440;28;20383;-82
2023/06/11 08:25:05;;;;;;;5.68;5.28;;;;;;;;;;5034789;28;20728;-82
2023/06/11 08:27:31;;;;;;;5.90;5.50;;;;;;;;;;5034354;28;20384;-82
2023/06/11 08:29:57;;;;;;;5.70;5.30;;;;;;;;;;5034408;28;20387;-82
2023/06/11 08:32:24;;;;;;;5.75;5.40;;;;;;;;;;5034639;28;20384;-82
2023/06/11 08:34:50;;;;;;;5.65;5.30;;;;;;;;;;5040585;28;20470;-83
2023/06/11 08:37:16;;;;;;;5.45;5.05;;;;;;;;;;5045036;28;20900;-82
2023/06/11 08:39:42;;;;;;;5.18;4.88;;;;;;;;;;5050642;28;20377;-83
2023/06/11 08:42:08;;;;;;;5.55;5.05;;;;;;;;;;5041799;28;20881;-82
2023/06/11 08:44:35;;;;;;;5.30;5.00;;;;;;;;;;5049274;28;20439;-82
2023/06/11 08:47:02;;;;;;;5.40;5.10;;;;;;;;;;5053977;28;20909;-83
2023/06/11 08:49:30;;;;;;;5.15;4.85;;;;;;;;;;5053816;28;20409;-82
2023/06/11 08:51:58;;;;;;;5.20;4.85;;;;;;;;;;5053875;28;20496;-83
2023/06/11 08:54:24;;;;;;;4.95;4.60;;;;;;;;;;5053902;28;20933;-82
2023/06/11 08:56:50;;;;;;;5.18;4.88;;;;;;;;;;5053998;28;20778;-82
2023/06/11 08:59:16;;;;;;;5.13;4.72;;;;;;;;;;5053730;28;20865;-83
2023/06/11 09:01:42;;;;;;;4.53;4.22;;;;;;;;;;5053575;28;20504;-82
2023/06/11 09:04:08;;;;;;;4.95;4.55;;;;;;;;;;5045717;28;20868;-82
2023/06/11 09:06:34;;;;;;;4.35;4.05;;;;;;;;;;5033341;28;20399;-82
2023/06/11 09:09:07;;;;;;;4.80;4.40;;;;;;;;;;5032160;28;20415;-83
2023/06/11 09:11:34;;;;;;;4.30;4.00;;;;;;;;;;5033884;28;20394;-83
2023/06/11 09:14:01;;;;;;;4.63;4.32;;;;;;;;;;5032341;28;20918;-82
2023/06/11 09:16:27;;;;;;;4.38;4.18;;;;;;;;;;5033427;28;20383;-82
2023/06/11 09:18:54;;;;;;;3.90;3.70;;;;;;;;;;5032912;28;20386;-82
2023/06/11 09:21:22;;;;;;;3.65;3.45;;;;;;;;;;5033459;28;20390;-82
2023/06/11 09:23:48;;;;;;;4.10;3.75;;;;;;;;;;5033409;28;20391;-83
2023/06/11 09:26:18;;;;;;;4.00;3.70;;;;;;;;;;5033486;28;20391;-82
2023/06/11 09:28:46;;;;;;;3.80;3.50;;;;;;;;;;5033203;28;20469;-82
2023/06/11 09:31:12;;;;;;;3.70;3.40;;;;;;;;;;5033297;28;20375;-82
2023/06/11 09:33:38;;;;;;;3.60;3.40;;;;;;;;;;5032329;28;20971;-83
2023/06/11 09:36:04;;;;;;;3.63;3.42;;;;;;;;;;5033242;28;20382;-82
2023/06/11 09:38:34;;;;;;;3.80;3.60;;;;;;;;;;5033081;28;20865;-82
2023/06/11 09:41:00;;;;;;;3.40;3.20;;;;;;;;;;5033373;28;20796;-82
2023/06/11 09:43:26;;;;;;;3.35;3.10;;;;;;;;;;5039105;28;20385;-81
2023/06/11 09:45:53;;;;;;;3.22;3.03;;;;;;;;;;5048981;28;20383;-82
2023/06/11 09:48:25;;;;;;;3.20;3.00;;;;;;;;;;5041080;28;20426;-82
2023/06/11 09:50:52;;;;;;;3.45;2.97;;;;;;;;;;5046173;28;20863;-82
2023/06/11 09:53:19;;;;;;;3.40;3.20;;;;;;;;;;5035277;28;20774;-83
2023/06/11 09:55:48;;;;;;;3.30;3.10;;;;;;;;;;5032995;28;20386;-82
2023/06/11 09:58:17;;;;;;;3.10;2.90;;;;;;;;;;5032711;28;20409;-82
2023/06/11 10:00:46;;;;;;;3.70;3.40;;;;;;;;;;5032567;28;20391;-82
2023/06/11 10:03:12;;;;;;;4.05;3.85;;;;;;;;;;5032654;28;20473;-81
2023/06/11 10:05:38;;;;;;;3.90;3.63;;;;;;;;;;5033870;28;20721;-82
2023/06/11 10:08:07;;;;;;;3.70;3.40;;;;;;;;;;5032540;28;20421;-82
2023/06/11 10:10:36;;;;;;;3.90;3.60;;;;;;;;;;5032420;28;20379;-82
2023/06/11 10:13:02;;;;;;;3.55;3.35;;;;;;;;;;5032348;28;20387;-82
2023/06/11 10:15:30;;;;;;;3.50;3.30;;;;;;;;;;5032266;28;20383;-82
2023/06/11 10:17:56;;;;;;;3.35;3.15;;;;;;;;;;5030707;28;20741;-82
2023/06/11 10:20:31;;;;;;;3.20;3.00;;;;;;;;;;5032579;28;20781;-82
2023/06/11 10:23:05;;;;;;;3.80;3.50;;;;;;;;;;5032334;28;20383;-81
2023/06/11 10:25:34;;;;;;;3.70;3.40;;;;;;;;;;5032189;28;20390;-82
2023/06/11 10:28:00;;;;;;;3.65;3.35;;;;;;;;;;5032144;28;20983;-83
2023/06/11 10:30:26;;;;;;;3.57;3.37;;;;;;;;;;5032091;28;20473;-82
2023/06/11 10:32:53;;;;;;;3.60;3.40;;;;;;;;;;5032085;28;20386;-82
2023/06/11 10:35:24;;;;;;;3.70;3.50;;;;;;;;;;5032000;28;20383;-81
2023/06/11 10:37:50;;;;;;;3.65;3.35;;;;;;;;;;5032192;28;20864;-82
2023/06/11 10:40:16;;;;;;;3.47;3.27;;;;;;;;;;5032045;28;20387;-82
2023/06/11 10:42:43;;;;;;;3.07;2.73;;;;;;;;;;5032047;28;20429;-82
2023/06/11 10:45:10;;;;;;;4.40;3.30;;;;;;;;;;5031813;28;20391;-83
2023/06/11 10:47:46;;;;;;;3.80;3.50;;;;;;;;;;5031851;28;20379;-83
2023/06/11 10:50:13;;;;;;;3.40;3.20;;;;;;;;;;5034826;28;20400;-82
2023/06/11 10:52:55;;;;;;;3.13;2.92;;;;;;;;;;5039103;28;20439;-82
2023/06/11 10:55:22;;;;;;;3.45;3.15;;;;;;;;;;5035375;28;20383;-82
2023/06/11 10:57:52;;;;;;;3.15;2.92;;;;;;;;;;5047813;28;20784;-82
2023/06/11 11:00:18;;;;;;;3.10;2.90;;;;;;;;;;5042942;28;20379;-82
2023/06/11 11:02:44;;;;;;;3.00;2.80;;;;;;;;;;5031712;28;20406;-82
2023/06/11 11:05:10;;;;;;;3.50;3.30;;;;;;;;;;5031346;28;20437;-81
2023/06/11 11:07:37;;;;;;;3.28;2.97;;;;;;;;;;5031858;28;20379;-81
2023/06/11 11:10:05;;;;;;;3.53;3.10;;;;;;;;;;5031670;28;20876;-81
2023/06/11 11:12:45;;;;;;;3.30;3.10;;;;;;;;;;5031502;28;20380;-82
2023/06/11 11:15:12;;;;;;;3.40;3.20;;;;;;;;;;5031586;28;20462;-82
2023/06/11 11:17:42;;;;;;;3.70;3.40;;;;;;;;;;5031557;28;20402;-82
2023/06/11 11:20:11;;;;;;;3.30;3.00;;;;;;;;;;5031336;28;20383;-82
2023/06/11 11:22:38;;;;;;;3.22;3.03;;;;;;;;;;5031371;28;20421;-81
2023/06/11 11:25:04;;;;;;;3.25;3.05;;;;;;;;;;5031399;28;20410;-81
2023/06/11 11:27:31;;;;;;;3.17;2.95;;;;;;;;;;5029007;28;20422;-82
2023/06/11 11:29:58;;;;;;;3.20;3.00;;;;;;;;;;5030962;28;20484;-82
2023/06/11 11:32:26;;;;;;;3.30;3.10;;;;;;;;;;5031331;28;20426;-83
2023/06/11 11:34:52;;;;;;;3.53;3.33;;;;;;;;;;5030804;28;20477;-82
2023/06/11 11:37:18;;;;;;;3.00;2.80;;;;;;;;;;5031271;28;20935;-82
2023/06/11 11:39:44;;;;;;;2.90;2.70;;;;;;;;;;5031423;28;20391;-82
2023/06/11 11:42:10;;;;;;;3.47;3.28;;;;;;;;;;5031117;28;20466;-81
2023/06/11 11:44:42;;;;;;;4.25;3.40;;;;;;;;;;5031177;28;20387;-82
2023/06/11 11:47:12;;;;;;;3.45;3.25;;;;;;;;;;5031149;28;20478;-82
2023/06/11 11:49:38;;;;;;;3.15;2.95;;;;;;;;;;5031514;28;20403;-83
2023/06/11 11:52:11;;;;;;;3.13;2.92;;;;;;;;;;5031063;28;20391;-83
2023/06/11 11:54:41;;;;;;;3.20;3.00;;;;;;;;;;5033315;28;20757;-82
2023/06/11 11:57:07;;;;;;;3.58;3.38;;;;;;;;;;5038154;28;20846;-82
2023/06/11 11:59:40;;;;;;;3.50;3.30;;;;;;;;;;5040629;28;20717;-82
2023/06/11 12:02:06;;;;;;;3.58;3.38;;;;;;;;;;5042852;28;20881;-82
2023/06/11 12:04:43;;;;;;;3.90;3.60;;;;;;;;;;5039752;28;20776;-82
2023/06/11 12:07:13;;;;;;;3.65;3.30;;;;;;;;;;5035884;28;20387;-82
2023/06/11 12:09:39;;;;;;;3.83;3.55;;;;;;;;;;5030980;28;20864;-82
2023/06/11 12:12:06;;;;;;;3.53;3.33;;;;;;;;;;5030733;28;20382;-82
2023/06/11 12:14:33;;;;;;;3.25;3.05;;;;;;;;;;5029551;28;20830;-82
2023/06/11 12:16:59;;;;;;;3.20;3.00;;;;;;;;;;5030967;28;20375;-81
2023/06/11 12:19:25;;;;;;;3.10;2.85;;;;;;;;;;5030982;28;20387;-82
2023/06/11 12:21:51;;;;;;;3.50;3.20;;;;;;;;;;5030738;28;20375;-82
2023/06/11 12:24:17;;;;;;;3.88;3.58;;;;;;;;;;5030357;28;20437;-82
2023/06/11 12:26:48;;;;;;;3.47;2.95;;;;;;;;;;5030960;28;20466;-82
2023/06/11 12:29:14;;;;;;;3.87;3.27;;;;;;;;;;5030844;28;20450;-82
2023/06/11 12:31:40;;;;;;;3.30;3.00;;;;;;;;;;5030751;28;20379;-82
2023/06/11 12:34:07;;;;;;;3.33;3.10;;;;;;;;;;5030797;28;20455;-82
2023/06/11 12:36:33;;;;;;;3.50;2.92;;;;;;;;;;5031116;28;20462;-82
2023/06/11 12:39:01;;;;;;;2.80;2.60;;;;;;;;;;5034460;28;20772;-82
2023/06/11 12:41:27;;;;;;;3.35;3.05;;;;;;;;;;5034115;28;20856;-82
2023/06/11 12:43:53;;;;;;;2.55;2.45;;;;;;;;;;5034246;28;20473;-82
2023/06/11 12:46:19;;;;;;;2.90;2.63;;;;;;;;;;5034299;28;20414;-83
2023/06/11 12:48:45;;;;;;;2.70;2.50;;;;;;;;;;5032744;28;20435;-83
2023/06/11 12:51:11;;;;;;;2.80;2.60;;;;;;;;;;5033988;28;20787;-82
2023/06/11 12:53:37;;;;;;;2.47;2.28;;;;;;;;;;5033958;28;20477;-82
2023/06/11 12:56:03;;;;;;;2.60;2.40;;;;;;;;;;5034220;28;20404;-82
2023/06/11 12:58:29;;;;;;;3.33;3.05;;;;;;;;;;5049987;28;20389;-83
2023/06/11 13:00:55;;;;;;;3.50;2.70;;;;;;;;;;5042500;28;20445;-82
2023/06/11 13:03:21;;;;;;;2.45;2.28;;;;;;;;;;5036643;28;20478;-83
2023/06/11 13:05:47;;;;;;;2.78;2.38;;;;;;;;;;5035464;28;20466;-83
2023/06/11 13:08:13;;;;;;;2.50;2.30;;;;;;;;;;5053087;28;20752;-82
2023/06/11 13:10:40;;;;;;;2.50;2.30;;;;;;;;;;5054030;28;20370;-82
2023/06/11 13:13:06;;;;;;;2.55;2.35;;;;;;;;;;5053594;28;20376;-83
2023/06/11 13:15:32;;;;;;;2.63;2.42;;;;;;;;;;5053707;28;20866;-82
2023/06/11 13:17:58;;;;;;;2.63;2.40;;;;;;;;;;5052593;28;20377;-83
2023/06/11 13:20:24;;;;;;;2.80;2.60;;;;;;;;;;5031947;28;20399;-82
2023/06/11 13:22:50;;;;;;;2.97;2.73;;;;;;;;;;5033502;28;20386;-82
2023/06/11 13:25:16;;;;;;;2.75;2.40;;;;;;;;;;5033475;28;20463;-82
2023/06/11 13:27:42;;;;;;;2.65;2.53;;;;;;;;;;5033573;28;20426;-82
2023/06/11 13:30:09;;;;;;;2.60;2.40;;;;;;;;;;5033624;28;20453;-82
2023/06/11 13:32:36;;;;;;;3.90;2.40;;;;;;;;;;5032750;28;20380;-83
2023/06/11 13:35:02;;;;;;;2.63;2.50;;;;;;;;;;5032894;28;20387;-82
2023/06/11 13:37:28;;;;;;;3.38;2.72;;;;;;;;;;5032653;28;20401;-82
2023/06/11 13:39:54;;;;;;;2.85;2.58;;;;;;;;;;5033170;28;20387;-81
2023/06/11 13:42:20;;;;;;;2.70;2.50;;;;;;;;;;5033283;28;20407;-82
2023/06/11 13:44:46;;;;;;;2.92;2.72;;;;;;;;;;5033258;28;20395;-82
2023/06/11 13:47:12;;;;;;;2.95;2.70;;;;;;;;;;5033077;28;20911;-82
2023/06/11 13:49:38;;;;;;;2.65;2.45;;;;;;;;;;5032266;28;20418;-82
2023/06/11 13:52:05;;;;;;;2.45;2.35;;;;;;;;;;5033056;28;20391;-81
2023/06/11 13:54:33;;;;;;;2.60;2.40;;;;;;;;;;5033067;28;20387;-81
2023/06/11 13:56:59;;;;;;;2.58;2.38;;;;;;;;;;5036630;28;20384;-81
2023/06/11 13:59:25;;;;;;;2.58;2.38;;;;;;;;;;5042753;28;20381;-82
2023/06/11 14:01:54;;;;;;;4.68;2.40;;;;;;;;;;5046376;28;20410;-82
2023/06/11 14:04:20;;;;;;;2.75;2.38;;;;;;;;;;5050372;28;20427;-82
2023/06/11 14:06:46;;;;;;;2.80;2.58;;;;;;;;;;5037087;28;20385;-82
2023/06/11 14:09:12;;;;;;;3.33;2.50;;;;;;;;;;5051675;28;20412;-83
2023/06/11 14:11:38;;;;;;;2.78;2.50;;;;;;;;;;5052468;28;20457;-82
2023/06/11 14:14:04;;;;;;;2.70;2.50;;;;;;;;;;5052535;28;20377;-82
2023/06/11 14:16:30;;;;;;;2.60;2.40;;;;;;;;;;5052312;28;20380;-82
2023/06/11 14:18:56;;;;;;;4.80;2.70;;;;;;;;;;5052238;28;20419;-82
2023/06/11 14:21:23;;;;;;;2.70;2.50;;;;;;;;;;5041846;28;20375;-82
2023/06/11 14:23:49;;;;;;;2.58;2.40;;;;;;;;;;5032337;28;20475;-81
2023/06/11 14:26:15;;;;;;;3.20;2.42;;;;;;;;;;5032319;28;20462;-82
2023/06/11 14:28:41;;;;;;;2.58;2.38;;;;;;;;;;5032200;28;20407;-81
2023/06/11 14:31:07;;;;;;;2.90;2.70;;;;;;;;;;5032283;28;20482;-81
2023/06/11 14:33:33;;;;;;;2.80;2.45;;;;;;;;;;5032106;28;20375;-82
2023/06/11 14:36:04;;;;;;;2.58;2.38;;;;;;;;;;5032184;28;20884;-82
2023/06/11 14:38:30;;;;;;;2.58;2.47;;;;;;;;;;5032434;28;20774;-82